Time;durP1;ratioP1;P1;durP2;ratioP2;P2;SDS_P1;SDS_P2;PMS_P1;PMS_P2;Temp;Humidity;BMP_temperature;BMP_pressure;BME280_temperature;BME280_humidity;BME280_pressure;Samples;Min_cycle;Max_cycle;Signal;HPM_P1;HPM_P2
2023/05/11 00:01:49;;;;;;;13.57;10.40;;;13.00;99.90;;;;;;5148801;27;20053;-39
2023/05/11 00:04:14;;;;;;;12.90;10.38;;;13.00;99.90;;;;;;5101358;27;20117;-41
2023/05/11 00:06:40;;;;;;;15.75;11.45;;;13.00;99.90;;;;;;5151976;27;20075;-37
2023/05/11 00:09:08;;;;;;;16.10;11.32;;;13.00;99.90;;;;;;5168391;27;20043;-40
2023/05/11 00:11:34;;;;;;;16.30;11.93;;;13.00;99.90;;;;;;5141452;27;20074;-39
2023/05/11 00:14:00;;;;;;;15.00;11.25;;;12.90;99.90;;;;;;5146355;27;20041;-38
2023/05/11 00:16:25;;;;;;;15.95;11.25;;;13.00;99.90;;;;;;5144908;27;20026;-39
2023/05/11 00:18:51;;;;;;;16.35;11.60;;;12.90;99.90;;;;;;5119492;27;20033;-38
2023/05/11 00:21:17;;;;;;;16.13;11.98;;;12.90;99.90;;;;;;5145384;27;20034;-36
2023/05/11 00:23:42;;;;;;;17.25;11.93;;;12.90;99.90;;;;;;5154687;27;20046;-39
2023/05/11 00:26:08;;;;;;;16.15;11.75;;;12.90;99.90;;;;;;5136093;27;20042;-37
2023/05/11 00:28:34;;;;;;;15.68;11.70;;;12.90;99.90;;;;;;5152185;27;20488;-39
2023/05/11 00:30:59;;;;;;;14.73;11.43;;;12.80;99.90;;;;;;5141463;27;20118;-39
2023/05/11 00:33:25;;;;;;;18.65;12.70;;;12.80;99.90;;;;;;5143461;27;20070;-39
2023/05/11 00:35:51;;;;;;;16.95;12.05;;;12.80;99.90;;;;;;5146246;27;20051;-39
2023/05/11 00:38:17;;;;;;;20.33;14.02;;;12.80;99.90;;;;;;5141023;27;20066;-38
2023/05/11 00:40:42;;;;;;;18.80;13.77;;;12.80;99.90;;;;;;5142642;27;20043;-39
2023/05/11 00:43:08;;;;;;;18.23;13.32;;;12.80;99.90;;;;;;5139645;27;20034;-38
2023/05/11 00:45:34;;;;;;;20.30;15.25;;;12.80;99.90;;;;;;5141125;27;20411;-37
2023/05/11 00:48:00;;;;;;;18.13;14.38;;;12.80;99.90;;;;;;5146520;27;20110;-38
2023/05/11 00:50:27;;;;;;;18.33;13.77;;;12.70;99.90;;;;;;5147550;27;20042;-37
2023/05/11 00:52:57;;;;;;;21.88;15.50;;;12.70;99.90;;;;;;5148414;27;20031;-38
2023/05/11 00:55:23;;;;;;;19.98;14.63;;;12.70;99.90;;;;;;5154282;27;20041;-37
2023/05/11 00:57:49;;;;;;;22.00;14.73;;;12.70;99.90;;;;;;5144988;27;20050;-39
2023/05/11 01:00:15;;;;;;;22.55;15.82;;;12.70;99.90;;;;;;5154416;27;20034;-38
2023/05/11 01:02:41;;;;;;;23.33;16.63;;;12.70;99.90;;;;;;5162150;27;20074;-38
2023/05/11 01:05:07;;;;;;;23.35;15.07;;;12.70;99.90;;;;;;5151452;27;20034;-38
2023/05/11 01:07:55;;;;;;;21.05;15.73;;;12.70;99.90;;;;;;5149091;27;20252;-41
2023/05/11 01:10:32;;;;;;;22.02;15.98;;;12.60;99.90;;;;;;5144255;27;20117;-38
2023/05/11 01:13:09;;;;;;;21.33;15.65;;;12.60;99.90;;;;;;5138573;27;20042;-37
2023/05/11 01:15:47;;;;;;;21.90;14.70;;;12.60;99.90;;;;;;5143761;27;20061;-38
2023/05/11 01:18:33;;;;;;;23.65;16.48;;;12.60;99.90;;;;;;5141296;27;20048;-37
2023/05/11 01:21:00;;;;;;;23.98;15.88;;;12.60;99.90;;;;;;5127700;27;20057;-37
2023/05/11 01:23:35;;;;;;;21.95;15.82;;;12.60;99.90;;;;;;5149222;27;20086;-38
2023/05/11 01:26:20;;;;;;;23.25;15.50;;;12.50;99.90;;;;;;5144888;27;20065;-39
2023/05/11 01:29:14;;;;;;;23.63;15.98;;;12.50;99.90;;;;;;5149293;27;20038;-38
2023/05/11 01:31:43;;;;;;;23.70;16.40;;;12.50;99.90;;;;;;5146431;27;20133;-38
2023/05/11 01:34:25;;;;;;;21.15;14.40;;;12.50;99.90;;;;;;5141347;27;20035;-39
2023/05/11 01:37:03;;;;;;;22.05;16.25;;;12.50;99.90;;;;;;5139909;27;20578;-37
2023/05/11 01:39:37;;;;;;;21.90;16.02;;;12.50;99.90;;;;;;5146945;27;20042;-39
2023/05/11 01:42:14;;;;;;;21.17;15.30;;;12.50;99.90;;;;;;5143513;27;20034;-40
2023/05/11 01:44:43;;;;;;;21.90;15.73;;;12.50;99.90;;;;;;5149978;27;20031;-39
2023/05/11 01:47:11;;;;;;;24.33;16.38;;;12.50;99.90;;;;;;5149149;27;20612;-39
2023/05/11 01:49:39;;;;;;;27.88;17.38;;;12.50;99.90;;;;;;5150954;27;20050;-37
2023/05/11 01:52:08;;;;;;;23.80;15.95;;;12.50;99.90;;;;;;5145359;27;20026;-37
2023/05/11 01:54:37;;;;;;;22.77;15.68;;;12.50;99.90;;;;;;5149423;27;20114;-37
2023/05/11 01:57:04;;;;;;;24.30;17.45;;;12.50;99.90;;;;;;5150591;27;20670;-38
2023/05/11 01:59:32;;;;;;;23.38;16.88;;;12.50;99.90;;;;;;5152215;27;20041;-37
2023/05/11 02:01:59;;;;;;;23.13;16.95;;;12.50;99.90;;;;;;5139975;27;20395;-40
2023/05/11 02:04:25;;;;;;;24.08;16.73;;;12.50;99.90;;;;;;5169578;27;20036;-38
2023/05/11 02:06:53;;;;;;;22.77;16.33;;;12.40;99.90;;;;;;5143574;27;20035;-37
2023/05/11 02:09:20;;;;;;;26.35;17.67;;;12.50;99.90;;;;;;5153439;27;20077;-39
2023/05/11 02:11:48;;;;;;;25.35;17.38;;;12.50;99.90;;;;;;5149811;27;20083;-39
2023/05/11 02:14:16;;;;;;;25.42;17.33;;;12.40;99.90;;;;;;5153500;27;20491;-38
2023/05/11 02:16:43;;;;;;;25.98;17.95;;;12.40;99.90;;;;;;5155305;27;20030;-39
2023/05/11 02:19:12;;;;;;;27.05;18.45;;;12.40;99.90;;;;;;5136810;27;20031;-37
2023/05/11 02:21:40;;;;;;;24.10;17.35;;;12.40;99.90;;;;;;5150228;27;20078;-40
2023/05/11 02:24:07;;;;;;;24.38;17.13;;;12.40;99.90;;;;;;5139591;27;20395;-39
2023/05/11 02:26:33;;;;;;;26.00;18.08;;;12.40;99.90;;;;;;5141284;27;20037;-40
2023/05/11 02:28:59;;;;;;;29.15;17.92;;;12.40;99.90;;;;;;5172910;27;20034;-38
2023/05/11 02:31:28;;;;;;;31.15;18.02;;;12.40;99.90;;;;;;5136777;27;20484;-38
2023/05/11 02:34:05;;;;;;;27.38;18.15;;;12.40;99.90;;;;;;5146199;27;20034;-37
2023/05/11 02:36:32;;;;;;;26.88;18.42;;;12.40;99.90;;;;;;5144363;27;20110;-38
2023/05/11 02:39:05;;;;;;;31.52;18.73;;;12.40;99.90;;;;;;5137922;27;20037;-38
2023/05/11 02:41:36;;;;;;;32.25;19.85;;;12.50;99.90;;;;;;5151310;27;20187;-38
2023/05/11 02:44:03;;;;;;;32.03;22.13;;;12.40;99.90;;;;;;5151796;27;20038;-38
2023/05/11 02:46:35;;;;;;;32.03;21.30;;;12.40;99.90;;;;;;5146476;27;20130;-37
2023/05/11 02:49:06;;;;;;;31.35;19.58;;;12.40;99.90;;;;;;5153554;27;20090;-38
2023/05/11 02:51:38;;;;;;;31.35;20.73;;;12.40;99.90;;;;;;5147802;27;20073;-38
2023/05/11 02:54:09;;;;;;;37.20;21.92;;;12.40;99.90;;;;;;5147541;27;20034;-37
2023/05/11 02:56:36;;;;;;;34.22;21.13;;;12.40;99.90;;;;;;5160341;27;20038;-37
2023/05/11 02:59:02;;;;;;;33.83;20.65;;;12.40;99.90;;;;;;5150209;27;20364;-40
2023/05/11 03:01:28;;;;;;;35.70;20.48;;;12.30;99.90;;;;;;5151110;27;20086;-38
2023/05/11 03:03:54;;;;;;;32.53;21.00;;;12.30;99.90;;;;;;5152337;27;20503;-38
2023/05/11 03:06:20;;;;;;;33.38;20.77;;;12.30;99.90;;;;;;5149956;27;20037;-38
2023/05/11 03:08:46;;;;;;;40.67;22.50;;;12.30;99.90;;;;;;5146757;27;20030;-37
2023/05/11 03:11:14;;;;;;;34.50;21.30;;;12.30;99.90;;;;;;5147908;27;20041;-38
2023/05/11 03:13:43;;;;;;;33.17;20.35;;;12.30;99.90;;;;;;5151428;27;20483;-39
2023/05/11 03:16:11;;;;;;;30.17;20.42;;;12.20;99.90;;;;;;5143889;27;20074;-38
2023/05/11 03:18:38;;;;;;;35.97;22.60;;;12.20;99.90;;;;;;5143624;27;20037;-38
2023/05/11 03:21:04;;;;;;;35.10;20.92;;;12.20;99.90;;;;;;5135689;27;20038;-37
2023/05/11 03:23:31;;;;;;;37.85;22.25;;;12.20;99.90;;;;;;5149219;27;20040;-39
2023/05/11 03:25:58;;;;;;;39.85;23.63;;;12.20;99.90;;;;;;5142195;27;20046;-37
2023/05/11 03:28:25;;;;;;;38.55;22.83;;;12.20;99.90;;;;;;5138452;27;20375;-38
2023/05/11 03:30:52;;;;;;;35.45;21.45;;;12.10;99.90;;;;;;5155326;27;20399;-38
2023/05/11 03:33:19;;;;;;;42.35;24.10;;;12.20;99.90;;;;;;5153068;27;20031;-38
2023/05/11 03:35:48;;;;;;;37.80;23.58;;;12.20;99.90;;;;;;5146087;27;20030;-39
2023/05/11 03:38:14;;;;;;;43.13;24.95;;;12.20;99.90;;;;;;5138001;27;20117;-39
2023/05/11 03:40:41;;;;;;;38.92;23.25;;;12.20;99.90;;;;;;5135856;27;20046;-41
2023/05/11 03:43:14;;;;;;;40.20;24.75;;;12.10;99.90;;;;;;5137981;27;20038;-37
2023/05/11 03:45:42;;;;;;;42.45;23.70;;;12.10;99.90;;;;;;5146501;27;20031;-38
2023/05/11 03:48:10;;;;;;;43.60;24.23;;;12.10;99.90;;;;;;5173508;27;20036;-40
2023/05/11 03:50:37;;;;;;;43.45;25.33;;;12.10;99.90;;;;;;5154278;27;20373;-38
2023/05/11 03:53:04;;;;;;;44.55;24.58;;;12.10;99.90;;;;;;5153712;27;20034;-37
2023/05/11 03:55:30;;;;;;;48.15;25.92;;;12.10;99.90;;;;;;5147041;27;20106;-39
2023/05/11 03:57:56;;;;;;;50.15;26.23;;;12.10;99.90;;;;;;5146829;27;20027;-37
2023/05/11 04:00:22;;;;;;;44.80;25.70;;;12.10;99.90;;;;;;5149787;27;20452;-38
2023/05/11 04:02:48;;;;;;;48.40;26.15;;;12.10;99.90;;;;;;5140365;27;20043;-38
2023/05/11 04:05:14;;;;;;;56.33;29.00;;;12.10;99.90;;;;;;5141748;27;20408;-42
2023/05/11 04:07:40;;;;;;;49.22;27.27;;;12.10;99.90;;;;;;5151231;27;20102;-41
2023/05/11 04:10:06;;;;;;;55.10;29.30;;;12.10;99.90;;;;;;5146455;27;20037;-38
2023/05/11 04:12:32;;;;;;;44.63;24.70;;;12.10;99.90;;;;;;5143493;27;20396;-38
2023/05/11 04:14:57;;;;;;;42.25;22.88;;;12.10;99.90;;;;;;5136693;27;20026;-37
2023/05/11 04:17:26;;;;;;;39.83;21.80;;;12.10;99.90;;;;;;5157367;27;20447;-39
2023/05/11 04:19:52;;;;;;;35.03;20.73;;;12.10;99.90;;;;;;5146385;27;20035;-37
2023/05/11 04:22:17;;;;;;;37.05;20.92;;;12.10;99.90;;;;;;5148876;27;20387;-37
2023/05/11 04:24:43;;;;;;;37.25;21.70;;;12.10;99.90;;;;;;5149822;27;20102;-39
2023/05/11 04:27:09;;;;;;;35.55;20.73;;;12.00;99.90;;;;;;5148695;27;20526;-39
2023/05/11 04:29:37;;;;;;;36.47;20.75;;;12.00;99.90;;;;;;5133602;27;20496;-38
2023/05/11 04:32:03;;;;;;;32.92;19.20;;;12.10;99.90;;;;;;5144751;27;20164;-39
2023/05/11 04:34:29;;;;;;;33.88;18.88;;;12.10;99.90;;;;;;5149449;27;20411;-37
2023/05/11 04:36:55;;;;;;;33.55;20.00;;;12.10;99.90;;;;;;5152411;27;20041;-38
2023/05/11 04:39:20;;;;;;;35.28;20.60;;;12.10;99.90;;;;;;5149459;27;20399;-40
2023/05/11 04:41:46;;;;;;;31.92;19.58;;;12.10;99.90;;;;;;5142612;27;20035;-38
2023/05/11 04:44:12;;;;;;;31.05;19.23;;;12.10;99.90;;;;;;5147168;27;20037;-37
2023/05/11 04:46:37;;;;;;;31.45;18.35;;;12.10;99.90;;;;;;5150316;27;20038;-37
2023/05/11 04:49:04;;;;;;;30.27;19.05;;;12.20;99.90;;;;;;5154232;27;20090;-37
2023/05/11 04:51:30;;;;;;;30.73;17.73;;;12.20;99.90;;;;;;5149058;27;20033;-40
2023/05/11 04:53:56;;;;;;;26.88;17.48;;;12.20;99.90;;;;;;5150969;27;20034;-37
2023/05/11 04:56:22;;;;;;;27.35;17.45;;;12.20;99.90;;;;;;5152011;27;20123;-41
2023/05/11 04:58:47;;;;;;;28.23;17.15;;;12.20;99.90;;;;;;5137350;27;20488;-39
2023/05/11 05:01:13;;;;;;;27.23;16.27;;;12.20;99.90;;;;;;5144311;27;20242;-38
2023/05/11 05:03:39;;;;;;;28.73;17.55;;;12.20;99.90;;;;;;5151054;27;20594;-37
2023/05/11 05:06:05;;;;;;;30.77;17.83;;;12.20;99.90;;;;;;5138431;27;20072;-39
2023/05/11 05:08:30;;;;;;;30.02;18.52;;;12.20;99.90;;;;;;5157976;27;20121;-36
2023/05/11 05:10:56;;;;;;;29.05;17.63;;;12.20;99.90;;;;;;5130189;27;20040;-40
2023/05/11 05:13:22;;;;;;;31.90;18.05;;;12.30;99.90;;;;;;5139058;27;20042;-37
2023/05/11 05:15:48;;;;;;;29.30;18.05;;;12.30;99.90;;;;;;5159653;27;20395;-37
2023/05/11 05:18:13;;;;;;;34.13;19.20;;;12.40;99.90;;;;;;5144380;27;20137;-36
2023/05/11 05:20:39;;;;;;;31.65;18.77;;;12.40;99.90;;;;;;5155257;27;20455;-36
2023/05/11 05:23:05;;;;;;;29.92;18.77;;;12.40;99.90;;;;;;5138319;27;20121;-35
2023/05/11 05:25:31;;;;;;;29.00;17.27;;;12.40;99.90;;;;;;5148539;27;20081;-36
2023/05/11 05:27:56;;;;;;;25.65;16.98;;;12.40;99.90;;;;;;5146545;27;20065;-37
2023/05/11 05:30:22;;;;;;;28.55;16.13;;;12.50;99.90;;;;;;5154377;27;20483;-37
2023/05/11 05:32:48;;;;;;;27.33;17.98;;;12.50;99.90;;;;;;5148005;27;20034;-37
2023/05/11 05:35:14;;;;;;;29.10;18.70;;;12.50;99.90;;;;;;5139992;27;20126;-36
2023/05/11 05:37:40;;;;;;;27.80;17.77;;;12.50;99.90;;;;;;5158415;27;20034;-37
2023/05/11 05:40:06;;;;;;;22.80;16.17;;;12.60;99.90;;;;;;5144463;27;20045;-38
2023/05/11 05:42:32;;;;;;;21.13;15.52;;;12.60;99.90;;;;;;5138069;27;20046;-37
2023/05/11 05:44:58;;;;;;;23.73;15.90;;;12.70;99.90;;;;;;5154272;27;20509;-37
2023/05/11 05:47:23;;;;;;;22.23;15.32;;;12.70;99.90;;;;;;5136073;27;20381;-36
2023/05/11 05:49:49;;;;;;;24.15;16.02;;;12.70;99.90;;;;;;5150919;27;20407;-34
2023/05/11 05:52:15;;;;;;;24.65;16.55;;;12.70;99.90;;;;;;5148265;27;20034;-38
2023/05/11 05:54:41;;;;;;;23.10;15.73;;;12.80;99.90;;;;;;5139017;27;20030;-37
2023/05/11 05:57:06;;;;;;;23.17;16.30;;;12.80;99.90;;;;;;5146809;27;20034;-37
2023/05/11 05:59:32;;;;;;;22.40;15.60;;;12.90;99.90;;;;;;5175240;27;20045;-35
2023/05/11 06:01:58;;;;;;;20.75;15.00;;;12.90;99.90;;;;;;5137607;27;20110;-37
2023/05/11 06:04:23;;;;;;;25.90;16.85;;;12.90;99.90;;;;;;5137705;27;20053;-37
2023/05/11 06:06:49;;;;;;;21.35;15.35;;;13.00;99.90;;;;;;5137588;27;20488;-36
2023/05/11 06:09:15;;;;;;;23.95;15.82;;;13.00;99.90;;;;;;5149941;27;20083;-37
2023/05/11 06:11:41;;;;;;;20.77;14.88;;;13.00;99.90;;;;;;5151595;27;20042;-37
2023/05/11 06:14:06;;;;;;;23.70;15.77;;;13.00;99.90;;;;;;5146997;27;20034;-36
2023/05/11 06:16:32;;;;;;;21.45;15.55;;;13.10;99.90;;;;;;5158166;27;20034;-36
2023/05/11 06:18:58;;;;;;;22.95;15.95;;;13.20;99.90;;;;;;5176403;27;20414;-37
2023/05/11 06:21:24;;;;;;;22.48;15.43;;;13.20;99.90;;;;;;5143504;27;20095;-38
2023/05/11 06:23:49;;;;;;;23.73;15.77;;;13.20;99.90;;;;;;5151570;27;20392;-36
2023/05/11 06:26:15;;;;;;;24.05;15.82;;;13.20;99.90;;;;;;5137177;27;20121;-37
2023/05/11 06:28:41;;;;;;;23.33;16.35;;;13.20;99.90;;;;;;5157824;27;20066;-37
2023/05/11 06:31:06;;;;;;;22.45;15.65;;;13.20;99.90;;;;;;5147237;27;20121;-35
2023/05/11 06:33:32;;;;;;;23.02;15.68;;;13.20;99.90;;;;;;5138586;27;20093;-37
2023/05/11 06:36:02;;;;;;;21.50;15.20;;;13.10;99.90;;;;;;5146806;27;20066;-37
2023/05/11 06:38:28;;;;;;;23.10;15.77;;;13.10;99.90;;;;;;5137138;27;20041;-36
2023/05/11 06:40:53;;;;;;;24.48;16.65;;;13.10;99.90;;;;;;5157463;27;20042;-39
2023/05/11 06:43:19;;;;;;;24.70;16.38;;;13.00;99.90;;;;;;5157605;27;20045;-38
2023/05/11 06:45:45;;;;;;;25.75;16.65;;;13.00;99.90;;;;;;5121411;27;20396;-36
2023/05/11 06:48:11;;;;;;;26.17;16.83;;;13.00;99.90;;;;;;5157338;27;20031;-37
2023/05/11 06:50:36;;;;;;;26.00;16.83;;;12.90;99.90;;;;;;5163400;27;20113;-37
2023/05/11 06:53:02;;;;;;;22.33;15.45;;;12.90;99.90;;;;;;5140442;27;20033;-36
2023/05/11 06:55:28;;;;;;;26.42;16.70;;;12.90;99.90;;;;;;5142455;27;20410;-36
2023/05/11 06:57:54;;;;;;;22.92;15.50;;;13.00;99.90;;;;;;5152752;27;20072;-38
2023/05/11 07:00:20;;;;;;;28.52;17.52;;;12.90;99.90;;;;;;5148763;27;20045;-37
2023/05/11 07:02:46;;;;;;;25.63;15.73;;;12.90;99.90;;;;;;5136464;27;20027;-35
2023/05/11 07:05:11;;;;;;;22.35;15.60;;;12.80;99.90;;;;;;5142490;27;20038;-37
2023/05/11 07:07:37;;;;;;;20.98;13.98;;;12.80;99.90;;;;;;5136363;27;20031;-37
2023/05/11 07:10:07;;;;;;;23.60;16.35;;;12.80;99.90;;;;;;5134169;27;20308;-36
2023/05/11 07:12:32;;;;;;;22.20;15.13;;;12.80;99.90;;;;;;5140850;27;20422;-36
2023/05/11 07:14:58;;;;;;;24.88;16.23;;;12.90;99.90;;;;;;5137768;27;20033;-38
2023/05/11 07:17:24;;;;;;;22.17;14.90;;;12.80;99.90;;;;;;5147480;27;20077;-36
2023/05/11 07:19:54;;;;;;;22.77;14.00;;;12.80;99.90;;;;;;5136489;27;20515;-36
2023/05/11 07:22:20;;;;;;;18.83;12.77;;;12.90;99.90;;;;;;5148513;27;20031;-37
2023/05/11 07:24:45;;;;;;;21.88;14.00;;;12.90;99.90;;;;;;5118495;27;20042;-35
2023/05/11 07:27:11;;;;;;;22.63;14.30;;;12.80;99.90;;;;;;5141192;27;20053;-38
2023/05/11 07:29:37;;;;;;;19.10;12.82;;;12.90;99.90;;;;;;5144574;27;20038;-38
2023/05/11 07:32:03;;;;;;;19.33;12.32;;;12.90;99.90;;;;;;5139448;27;20067;-37
2023/05/11 07:34:29;;;;;;;21.70;12.77;;;13.00;99.90;;;;;;5156253;27;20030;-36
2023/05/11 07:36:54;;;;;;;17.13;11.45;;;13.00;99.90;;;;;;5152227;27;20093;-35
2023/05/11 07:39:20;;;;;;;16.40;11.00;;;13.10;99.90;;;;;;5135614;27;20113;-39
2023/05/11 07:41:46;;;;;;;15.02;10.07;;;13.10;99.90;;;;;;5132189;27;20041;-36
2023/05/11 07:44:12;;;;;;;16.85;9.70;;;13.10;99.90;;;;;;5141757;27;20049;-37
2023/05/11 07:46:37;;;;;;;11.88;8.38;;;13.10;99.90;;;;;;5156342;27;20482;-37
2023/05/11 07:49:03;;;;;;;12.52;8.15;;;13.10;99.90;;;;;;5141843;27;20035;-37
2023/05/11 07:51:29;;;;;;;11.25;7.47;;;13.10;99.90;;;;;;5140750;27;20030;-36
2023/05/11 07:53:55;;;;;;;13.55;8.30;;;13.20;99.90;;;;;;5143945;27;20037;-37
2023/05/11 07:56:20;;;;;;;12.65;8.80;;;13.20;99.90;;;;;;5138416;27;20113;-37
2023/05/11 07:58:47;;;;;;;12.38;7.88;;;13.20;99.90;;;;;;5148295;27;20138;-37
2023/05/11 08:01:13;;;;;;;10.32;6.65;;;13.30;99.90;;;;;;5152560;27;20118;-38
2023/05/11 08:03:38;;;;;;;10.13;6.32;;;13.30;99.90;;;;;;5144457;27;20121;-37
2023/05/11 08:06:05;;;;;;;7.70;4.75;;;13.40;99.90;;;;;;5141053;27;20495;-38
2023/05/11 08:08:30;;;;;;;4.28;3.40;;;13.40;99.90;;;;;;5146494;27;20038;-37
2023/05/11 08:10:56;;;;;;;4.72;3.50;;;13.50;99.90;;;;;;5143626;27;20381;-38
2023/05/11 08:13:22;;;;;;;5.85;4.15;;;13.50;99.90;;;;;;5151352;27;20087;-37
2023/05/11 08:15:47;;;;;;;7.47;4.72;;;13.50;99.90;;;;;;5155533;27;20086;-35
2023/05/11 08:18:13;;;;;;;6.20;4.80;;;13.50;99.90;;;;;;5155200;27;20093;-37
2023/05/11 08:20:41;;;;;;;5.57;4.00;;;13.50;99.90;;;;;;5135225;27;20335;-40
2023/05/11 08:23:08;;;;;;;4.57;2.95;;;13.50;99.90;;;;;;5119348;27;20038;-38
2023/05/11 08:25:33;;;;;;;3.40;2.20;;;13.50;99.90;;;;;;5141013;27;20041;-38
2023/05/11 08:28:00;;;;;;;3.63;2.22;;;13.50;99.90;;;;;;5155607;27;20038;-36
2023/05/11 08:30:26;;;;;;;3.53;2.47;;;13.60;99.90;;;;;;5152334;27;20035;-35
2023/05/11 08:32:51;;;;;;;2.88;2.30;;;13.60;99.90;;;;;;5135158;27;20068;-38
2023/05/11 08:35:18;;;;;;;4.45;2.78;;;13.60;99.90;;;;;;5149522;27;20519;-38
2023/05/11 08:37:43;;;;;;;3.80;2.10;;;13.60;99.90;;;;;;5130498;27;20514;-38
2023/05/11 08:40:12;;;;;;;3.45;2.60;;;13.60;99.90;;;;;;5158498;27;20038;-37
2023/05/11 08:42:40;;;;;;;4.05;2.40;;;13.70;99.90;;;;;;5145827;27;20038;-36
2023/05/11 08:45:07;;;;;;;4.50;2.85;;;13.70;99.90;;;;;;5159788;27;20105;-36
2023/05/11 08:47:33;;;;;;;3.20;2.35;;;13.80;99.90;;;;;;5154550;27;20042;-37
2023/05/11 08:49:59;;;;;;;4.25;2.38;;;13.90;99.90;;;;;;5150642;27;20039;-37
2023/05/11 08:52:26;;;;;;;2.42;1.60;;;14.00;99.90;;;;;;5157310;27;20398;-38
2023/05/11 08:54:52;;;;;;;2.15;1.58;;;14.20;99.90;;;;;;5152033;27;20034;-35
2023/05/11 08:57:18;;;;;;;1.63;1.52;;;14.40;99.90;;;;;;5176724;27;20118;-36
2023/05/11 08:59:45;;;;;;;2.63;1.35;;;14.60;99.90;;;;;;5159045;27;20049;-39
2023/05/11 09:02:17;;;;;;;1.42;1.10;;;14.80;99.90;;;;;;5156693;27;20034;-40
2023/05/11 09:04:44;;;;;;;2.05;1.27;;;14.90;99.90;;;;;;5157211;27;20041;-37
2023/05/11 09:07:13;;;;;;;1.00;0.90;;;15.10;99.90;;;;;;5142117;27;20040;-37
2023/05/11 09:09:40;;;;;;;1.10;0.93;;;15.30;99.90;;;;;;5144314;27;20042;-38
2023/05/11 09:12:07;;;;;;;1.00;0.70;;;15.50;99.90;;;;;;5130419;27;20042;-36
2023/05/11 09:14:33;;;;;;;1.60;0.70;;;15.70;99.90;;;;;;5121052;27;20037;-37
2023/05/11 09:16:59;;;;;;;0.80;0.70;;;15.90;99.90;;;;;;5144314;27;20034;-38
2023/05/11 09:19:25;;;;;;;0.60;0.55;;;16.00;99.90;;;;;;5146596;27;20035;-37
2023/05/11 09:21:53;;;;;;;0.90;0.52;;;16.00;99.90;;;;;;5145601;27;20092;-37
2023/05/11 09:24:20;;;;;;;0.80;0.50;;;16.00;99.90;;;;;;5146610;27;20031;-37
2023/05/11 09:26:46;;;;;;;0.40;0.40;;;16.00;99.90;;;;;;5158393;27;20440;-36
2023/05/11 09:29:12;;;;;;;0.60;0.55;;;16.00;99.90;;;;;;5139775;27;20039;-36
2023/05/11 09:31:46;;;;;;;0.63;0.63;;;16.00;99.90;;;;;;5138067;27;20047;-38
2023/05/11 09:34:21;;;;;;;;;;;16.00;99.90;;;;;;5144340;27;20033;-35
2023/05/11 09:36:51;;;;;;;1.70;0.88;;;16.10;99.90;;;;;;5143233;27;19997;-36
2023/05/11 09:39:20;;;;;;;1.30;0.70;;;16.00;99.90;;;;;;5139213;27;20030;-37
2023/05/11 09:41:46;;;;;;;0.70;0.70;;;16.00;99.90;;;;;;5137577;27;20114;-37
2023/05/11 09:44:15;;;;;;;0.93;0.82;;;16.10;99.90;;;;;;5141259;27;20114;-38
2023/05/11 09:46:43;;;;;;;1.00;0.88;;;16.10;99.90;;;;;;5143615;27;20034;-38
2023/05/11 09:49:10;;;;;;;0.65;0.65;;;16.20;99.90;;;;;;5152053;27;20122;-38
2023/05/11 09:51:39;;;;;;;1.00;0.90;;;16.10;99.90;;;;;;5154788;27;20026;-37
2023/05/11 09:54:21;;;;;;;1.08;0.98;;;16.00;99.90;;;;;;5151094;27;20038;-37
2023/05/11 09:56:57;;;;;;;1.67;0.80;;;16.00;99.90;;;;;;5144870;27;20037;-36
2023/05/11 09:59:40;;;;;;;1.30;0.93;;;15.90;99.90;;;;;;5156743;27;20468;-39
2023/05/11 10:02:19;;;;;;;1.73;1.60;;;15.90;99.90;;;;;;5137693;27;20037;-40
2023/05/11 10:04:46;;;;;;;2.40;1.80;;;15.80;99.90;;;;;;5153828;27;20276;-37
2023/05/11 10:07:31;;;;;;;2.97;2.20;;;16.00;99.90;;;;;;5137189;27;20043;-37
2023/05/11 10:10:04;;;;;;;2.72;2.30;;;16.20;99.90;;;;;;5139089;27;20047;-36
2023/05/11 10:12:32;;;;;;;2.30;1.95;;;16.40;99.90;;;;;;5147172;27;20123;-41
2023/05/11 10:15:00;;;;;;;2.47;2.05;;;16.50;99.90;;;;;;5154659;27;20042;-37
2023/05/11 10:17:27;;;;;;;2.97;1.98;;;16.60;99.90;;;;;;5166896;27;20038;-37
2023/05/11 10:19:57;;;;;;;2.60;2.13;;;16.60;99.90;;;;;;5143339;27;20042;-38
2023/05/11 10:22:28;;;;;;;3.28;2.20;;;16.60;99.90;;;;;;5145607;27;20568;-38
2023/05/11 10:24:55;;;;;;;2.35;2.00;;;16.50;99.90;;;;;;5157057;27;20042;-37
2023/05/11 10:27:21;;;;;;;3.25;2.70;;;16.40;99.90;;;;;;5136970;27;20445;-38
2023/05/11 10:29:48;;;;;;;3.58;2.80;;;16.30;99.90;;;;;;5136810;27;20046;-36
2023/05/11 10:32:18;;;;;;;3.97;2.80;;;16.20;99.90;;;;;;5155103;27;20033;-38
2023/05/11 10:34:49;;;;;;;3.25;2.70;;;16.20;99.90;;;;;;5140459;27;20037;-40
2023/05/11 10:37:15;;;;;;;4.30;2.75;;;16.10;99.90;;;;;;5153088;27;20110;-36
2023/05/11 10:39:42;;;;;;;3.15;2.85;;;16.10;99.90;;;;;;5136836;27;20034;-41
2023/05/11 10:42:41;;;;;;;3.78;3.38;;;16.00;99.90;;;;;;5152346;27;20126;-38
2023/05/11 10:45:12;;;;;;;4.20;3.58;;;16.00;99.90;;;;;;5135270;27;20465;-41
2023/05/11 10:47:59;;;;;;;4.70;3.83;;;16.00;99.90;;;;;;5152165;27;20038;-41
2023/05/11 10:50:39;;;;;;;4.72;3.70;;;16.20;99.90;;;;;;5141192;27;20035;-43
2023/05/11 10:53:07;;;;;;;5.15;4.25;;;16.40;99.90;;;;;;5164393;27;20039;-39
2023/05/11 10:55:58;;;;;;;5.75;5.03;;;16.70;99.90;;;;;;5152022;27;20037;-38
2023/05/11 10:59:15;;;;;;;7.75;6.85;;;17.00;99.90;;;;;;5141587;27;20037;-40
2023/05/11 11:01:42;;;;;;;9.10;7.72;;;17.40;99.90;;;;;;5116708;27;20042;-38
2023/05/11 11:04:10;;;;;;;9.23;8.00;;;17.80;99.90;;;;;;5147242;27;20030;-41
2023/05/11 11:06:42;;;;;;;10.02;8.88;;;18.30;99.90;;;;;;5152235;27;20182;-39
2023/05/11 11:09:12;;;;;;;11.55;9.52;;;18.60;99.90;;;;;;5146984;27;20407;-39
2023/05/11 11:11:49;;;;;;;11.48;9.50;;;19.20;99.90;;;;;;5152202;27;20030;-42
2023/05/11 11:14:16;;;;;;;12.60;10.15;;;19.60;99.90;;;;;;5143352;27;20030;-40
2023/05/11 11:17:14;;;;;;;9.98;8.93;;;19.70;99.90;;;;;;5145174;27;20444;-43
2023/05/11 11:19:39;;;;;;;10.60;9.40;;;19.40;99.90;;;;;;5141649;27;20086;-41
2023/05/11 11:22:25;;;;;;;9.80;8.77;;;19.20;99.90;;;;;;5138476;27;20189;-41
2023/05/11 11:24:51;;;;;;;10.45;9.38;;;19.00;99.90;;;;;;5140644;27;20094;-42
2023/05/11 11:27:17;;;;;;;9.70;8.70;;;18.80;99.90;;;;;;5135512;27;20395;-40
2023/05/11 11:30:18;;;;;;;10.82;9.52;;;18.90;99.90;;;;;;5135491;27;20039;-40
2023/05/11 11:32:46;;;;;;;9.95;8.95;;;19.00;99.90;;;;;;5147216;27;20039;-39
2023/05/11 11:35:40;;;;;;;11.13;9.48;;;19.10;99.90;;;;;;5145592;27;20030;-38
2023/05/11 11:38:06;;;;;;;;;;;19.20;99.90;;;;;;5138769;27;20116;-38
2023/05/11 11:40:39;;;;;;;12.73;11.05;;;19.20;99.90;;;;;;5149462;27;19977;-39
2023/05/11 11:43:22;;;;;;;12.18;11.00;;;19.20;99.90;;;;;;5143079;27;20082;-40
2023/05/11 11:45:58;;;;;;;13.02;11.68;;;19.20;99.90;;;;;;5153919;27;20529;-39
2023/05/11 11:48:32;;;;;;;13.10;11.73;;;19.10;99.90;;;;;;5143776;27;20397;-40
2023/05/11 11:51:10;;;;;;;13.13;11.82;;;19.00;99.90;;;;;;5152831;27;20038;-40
2023/05/11 11:53:36;;;;;;;12.75;11.55;;;19.10;99.90;;;;;;5141147;27;20037;-38
2023/05/11 11:56:14;;;;;;;12.90;11.23;;;19.20;99.90;;;;;;5147384;27;20398;-38
2023/05/11 11:58:43;;;;;;;13.20;11.52;;;19.20;99.90;;;;;;5150969;27;20436;-39
2023/05/11 12:01:29;;;;;;;12.68;11.45;;;19.30;99.90;;;;;;5150353;27;20060;-40
2023/05/11 12:03:58;;;;;;;12.95;11.68;;;19.50;99.90;;;;;;5145100;27;20391;-40
2023/05/11 12:06:27;;;;;;;13.15;11.75;;;19.40;99.90;;;;;;5149037;27;20387;-40
2023/05/11 12:08:53;;;;;;;12.88;11.57;;;19.40;99.90;;;;;;5135484;27;20049;-41
2023/05/11 12:11:20;;;;;;;12.57;11.35;;;19.30;99.90;;;;;;5144956;27;20504;-39
2023/05/11 12:13:46;;;;;;;15.75;11.93;;;19.10;99.90;;;;;;5148311;27;20480;-41
2023/05/11 12:16:14;;;;;;;12.95;11.65;;;19.00;99.90;;;;;;5146448;27;20022;-40
2023/05/11 12:18:41;;;;;;;12.90;11.60;;;19.00;99.90;;;;;;5152763;27;20026;-41
2023/05/11 12:21:19;;;;;;;11.75;10.52;;;19.00;99.90;;;;;;5140207;27;20049;-41
2023/05/11 12:24:03;;;;;;;11.63;10.52;;;19.00;99.90;;;;;;5140994;27;20038;-41
2023/05/11 12:26:30;;;;;;;11.85;10.57;;;19.00;99.90;;;;;;5155385;27;20122;-38
2023/05/11 12:29:11;;;;;;;11.75;10.32;;;19.00;99.90;;;;;;5142419;27;20495;-39
2023/05/11 12:31:42;;;;;;;11.18;10.07;;;18.90;99.90;;;;;;5158411;27;20388;-40
2023/05/11 12:34:15;;;;;;;12.68;10.38;;;18.90;99.90;;;;;;5144504;27;20057;-39
2023/05/11 12:36:41;;;;;;;12.25;10.25;;;18.90;99.90;;;;;;5146776;27;20039;-39
2023/05/11 12:39:07;;;;;;;11.27;9.93;;;19.00;99.90;;;;;;5145886;27;20030;-41
2023/05/11 12:41:33;;;;;;;11.80;10.60;;;19.00;99.90;;;;;;5140325;27;20087;-40